Time;durP1;ratioP1;P1;durP2;ratioP2;P2;SDS_P1;SDS_P2;PMS_P1;PMS_P2;Temp;Humidity;BMP_temperature;BMP_pressure;BME280_temperature;BME280_humidity;BME280_pressure;Samples;Min_cycle;Max_cycle;Signal;HPM_P1;HPM_P2
2022/11/12 00:00:34;;;;;;;21.02;6.18;;;22.40;69.80;;;;;;6273427;22;20090;-65
2022/11/12 00:03:00;;;;;;;15.55;6.50;;;22.30;69.60;;;;;;6271855;22;20002;-65
2022/11/12 00:05:48;;;;;;;12.35;4.97;;;22.30;69.80;;;;;;6272946;22;20004;-65
2022/11/12 00:08:15;;;;;;;15.57;5.90;;;22.40;70.50;;;;;;6270996;22;20011;-64
2022/11/12 00:10:42;;;;;;;19.45;5.03;;;22.40;70.70;;;;;;6273166;22;20106;-64
2022/11/12 00:13:09;;;;;;;29.58;5.78;;;22.40;70.30;;;;;;6272318;22;20010;-64
2022/11/12 00:15:35;;;;;;;14.68;4.72;;;22.40;70.20;;;;;;6272629;22;20026;-64
2022/11/12 00:18:02;;;;;;;17.45;5.80;;;22.40;70.70;;;;;;6272766;22;20063;-64
2022/11/12 00:20:28;;;;;;;22.40;7.65;;;22.40;71.30;;;;;;6271651;22;20078;-65
2022/11/12 00:22:55;;;;;;;17.55;6.43;;;22.40;71.50;;;;;;6273051;22;20030;-64
2022/11/12 00:25:21;;;;;;;26.38;5.82;;;22.40;71.50;;;;;;6271595;22;20054;-64
2022/11/12 00:27:48;;;;;;;20.20;5.25;;;22.40;71.50;;;;;;6273694;22;20000;-64
2022/11/12 00:30:14;;;;;;;23.80;7.03;;;22.40;71.80;;;;;;6272219;22;20018;-65
2022/11/12 00:32:41;;;;;;;22.98;7.32;;;22.40;70.80;;;;;;6271835;22;20437;-63
2022/11/12 00:35:08;;;;;;;15.77;5.45;;;22.40;70.60;;;;;;6272347;22;20008;-68
2022/11/12 00:37:34;;;;;;;15.60;6.13;;;22.40;70.40;;;;;;6272078;22;20330;-63
2022/11/12 00:40:01;;;;;;;14.95;4.95;;;22.30;70.20;;;;;;6272489;22;20019;-64
2022/11/12 00:42:27;;;;;;;13.00;4.68;;;22.40;70.00;;;;;;6271365;22;20035;-65
2022/11/12 00:44:54;;;;;;;13.23;3.45;;;22.30;69.80;;;;;;6273720;22;20006;-65
2022/11/12 00:47:20;;;;;;;14.80;3.92;;;22.40;69.70;;;;;;6271862;22;20396;-65
2022/11/12 00:49:47;;;;;;;11.45;3.08;;;22.30;69.50;;;;;;6272526;22;20023;-65
2022/11/12 00:52:13;;;;;;;10.55;3.35;;;22.40;69.50;;;;;;6272381;22;20441;-63
2022/11/12 00:54:40;;;;;;;8.35;2.67;;;22.30;69.40;;;;;;6271646;22;20370;-65
2022/11/12 00:57:06;;;;;;;13.55;3.78;;;22.30;69.20;;;;;;6272405;22;20014;-64
2022/11/12 00:59:33;;;;;;;15.68;2.92;;;22.30;69.20;;;;;;6271575;22;20404;-65
2022/11/12 01:01:59;;;;;;;20.98;5.35;;;22.30;69.10;;;;;;6272775;22;20007;-64
2022/11/12 01:04:26;;;;;;;7.75;3.00;;;22.30;69.10;;;;;;6244332;22;20045;-64
2022/11/12 01:06:52;;;;;;;16.55;4.18;;;22.30;69.20;;;;;;6272635;22;20083;-67
2022/11/12 01:09:19;;;;;;;17.92;4.72;;;22.30;69.10;;;;;;6271374;22;20132;-65
2022/11/12 01:11:46;;;;;;;10.23;3.85;;;22.30;69.00;;;;;;6271766;22;20325;-67
2022/11/12 01:14:13;;;;;;;11.30;3.78;;;22.30;69.30;;;;;;6272273;22;20018;-65
2022/11/12 01:16:41;;;;;;;19.15;3.97;;;22.30;69.20;;;;;;6270976;22;20000;-65
2022/11/12 01:19:10;;;;;;;13.70;3.78;;;22.30;69.10;;;;;;6272337;22;20074;-65
2022/11/12 01:21:39;;;;;;;13.32;3.60;;;22.30;69.00;;;;;;6271026;22;20323;-66
2022/11/12 01:24:07;;;;;;;8.25;2.90;;;22.30;69.00;;;;;;6272175;22;20012;-66
2022/11/12 01:26:35;;;;;;;11.18;3.80;;;22.30;68.90;;;;;;6271509;22;20004;-65
2022/11/12 01:29:01;;;;;;;11.55;4.70;;;22.30;68.90;;;;;;6272566;22;20008;-67
2022/11/12 01:31:34;;;;;;;13.70;3.20;;;22.30;68.90;;;;;;6271938;22;20016;-66
2022/11/12 01:34:28;;;;;;;9.20;2.85;;;22.20;68.80;;;;;;6270483;22;20008;-66
2022/11/12 01:36:55;;;;;;;14.82;4.03;;;22.30;68.90;;;;;;6267408;22;19999;-64
2022/11/12 01:39:22;;;;;;;6.95;3.40;;;22.30;68.90;;;;;;6270601;22;20403;-65
2022/11/12 01:41:48;;;;;;;11.18;3.03;;;22.30;68.90;;;;;;6271806;22;20008;-65
2022/11/12 01:44:25;;;;;;;6.68;2.40;;;22.30;68.90;;;;;;6271505;22;20008;-68
2022/11/12 01:47:17;;;;;;;10.00;2.60;;;22.20;68.90;;;;;;6271884;22;20007;-66
2022/11/12 01:49:52;;;;;;;11.18;2.75;;;22.20;68.90;;;;;;6272524;22;20011;-64
2022/11/12 01:52:24;;;;;;;;;;;22.20;68.90;;;;;;6270962;22;20050;-66
2022/11/12 01:54:54;;;;;;;12.35;3.17;;;22.20;69.00;;;;;;6272422;22;19974;-65
2022/11/12 01:57:27;;;;;;;9.90;3.15;;;22.20;69.00;;;;;;6270851;22;20011;-65
2022/11/12 01:59:59;;;;;;;15.15;3.15;;;22.20;69.00;;;;;;6271522;22;20011;-64
2022/11/12 02:02:27;;;;;;;11.88;3.45;;;22.20;69.00;;;;;;6273005;22;20442;-65
2022/11/12 02:04:54;;;;;;;10.02;2.30;;;22.20;69.30;;;;;;6270763;22;20000;-65
2022/11/12 02:07:24;;;;;;;7.10;2.83;;;22.20;69.10;;;;;;6272758;22;20011;-65
2022/11/12 02:09:51;;;;;;;8.73;2.58;;;22.20;68.90;;;;;;6270282;22;20094;-65
2022/11/12 02:15:03;;;;;;;6.68;3.22;;;22.20;68.60;;;;;;6272047;22;20342;-65
2022/11/12 02:17:29;;;;;;;8.40;2.20;;;22.20;68.40;;;;;;6271426;22;19995;-66
2022/11/12 02:19:59;;;;;;;7.72;2.15;;;22.20;68.30;;;;;;6272012;22;20374;-67
2022/11/12 02:22:26;;;;;;;10.23;3.20;;;22.10;68.20;;;;;;6270837;22;20083;-67
2022/11/12 02:24:52;;;;;;;10.90;3.78;;;22.10;68.10;;;;;;6272361;22;20758;-68
2022/11/12 02:27:19;;;;;;;9.00;2.25;;;22.10;68.00;;;;;;6272306;22;20006;-65
2022/11/12 02:29:46;;;;;;;5.65;2.47;;;22.10;67.90;;;;;;6274633;22;20063;-66
2022/11/12 02:32:13;;;;;;;8.25;2.17;;;22.10;67.80;;;;;;6272512;22;20020;-66
2022/11/12 02:34:40;;;;;;;5.45;2.20;;;22.10;67.80;;;;;;6274088;22;20012;-64
2022/11/12 02:37:07;;;;;;;6.65;1.55;;;22.10;67.80;;;;;;6273427;22;20049;-65
2022/11/12 02:39:33;;;;;;;7.85;2.45;;;22.10;67.80;;;;;;6272581;22;20030;-65
2022/11/12 02:42:00;;;;;;;15.40;4.57;;;22.10;67.70;;;;;;6273613;22;20007;-66
2022/11/12 02:44:27;;;;;;;13.45;4.97;;;22.00;67.70;;;;;;6272604;22;20011;-65
2022/11/12 02:46:54;;;;;;;21.90;3.92;;;22.10;68.10;;;;;;6273918;22;20027;-68
2022/11/12 02:49:20;;;;;;;8.77;3.33;;;22.10;68.10;;;;;;6272667;22;20045;-66
2022/11/12 02:51:47;;;;;;;12.50;3.03;;;22.10;67.90;;;;;;6273522;22;20000;-68
2022/11/12 02:54:13;;;;;;;8.82;2.47;;;22.10;67.80;;;;;;6273170;22;20004;-66
2022/11/12 02:56:40;;;;;;;4.88;2.10;;;22.00;67.50;;;;;;6272889;22;19992;-66
2022/11/12 02:59:06;;;;;;;7.45;2.13;;;22.00;67.40;;;;;;6273705;22;20010;-66
2022/11/12 03:01:33;;;;;;;11.57;2.15;;;22.00;67.30;;;;;;6272779;22;19999;-65
2022/11/12 03:03:59;;;;;;;5.53;2.55;;;22.00;67.20;;;;;;6274429;22;20087;-66
2022/11/12 03:06:26;;;;;;;10.50;2.80;;;22.00;67.00;;;;;;6272509;22;20000;-65
2022/11/12 03:08:52;;;;;;;5.35;1.50;;;22.00;66.80;;;;;;6274162;22;20022;-65
2022/11/12 03:11:19;;;;;;;14.32;2.47;;;22.00;66.60;;;;;;6272747;22;20006;-66
2022/11/12 03:13:45;;;;;;;5.65;1.95;;;22.00;66.30;;;;;;6273332;22;20014;-65
2022/11/12 03:16:12;;;;;;;5.65;1.80;;;21.90;66.10;;;;;;6273339;22;20081;-65
2022/11/12 03:18:39;;;;;;;15.48;2.63;;;21.90;66.00;;;;;;6272218;22;20012;-69
2022/11/12 03:21:05;;;;;;;15.02;5.90;;;21.90;66.20;;;;;;6273768;22;20010;-66
2022/11/12 03:23:35;;;;;;;15.95;5.50;;;21.90;66.60;;;;;;6270207;22;20010;-64
2022/11/12 03:26:03;;;;;;;7.95;3.38;;;21.90;66.80;;;;;;6271475;22;20007;-67
2022/11/12 03:28:30;;;;;;;19.08;3.53;;;21.90;66.60;;;;;;6270159;22;20016;-69
2022/11/12 03:30:58;;;;;;;24.58;3.65;;;21.90;66.40;;;;;;6271327;22;20391;-67
2022/11/12 03:33:28;;;;;;;5.90;1.92;;;21.90;66.80;;;;;;6271133;22;20003;-69
2022/11/12 03:35:55;;;;;;;7.75;2.53;;;21.90;66.10;;;;;;6270536;22;20004;-66
2022/11/12 03:38:22;;;;;;;10.02;2.35;;;21.90;66.00;;;;;;6272040;22;20111;-65
2022/11/12 03:40:49;;;;;;;5.28;1.60;;;21.90;65.90;;;;;;6269892;22;20011;-67
2022/11/12 03:43:15;;;;;;;5.82;1.20;;;21.90;65.80;;;;;;6271687;22;20038;-65
2022/11/12 03:45:41;;;;;;;9.50;3.53;;;21.90;65.90;;;;;;6270994;22;20046;-66
2022/11/12 03:48:08;;;;;;;9.55;2.35;;;21.90;65.80;;;;;;6272382;22;20056;-65
2022/11/12 03:50:34;;;;;;;14.38;8.60;;;21.80;65.80;;;;;;6271797;22;20003;-65
2022/11/12 03:53:02;;;;;;;39.40;25.95;;;21.90;66.50;;;;;;6272837;22;20361;-64
2022/11/12 03:55:29;;;;;;;32.90;23.08;;;21.90;67.30;;;;;;6271814;22;20003;-67
2022/11/12 03:57:57;;;;;;;17.83;14.32;;;21.90;67.30;;;;;;6270407;22;20030;-66
2022/11/12 04:00:25;;;;;;;16.95;9.32;;;21.80;67.10;;;;;;6272101;22;20004;-65
2022/11/12 06:41:23;;;;;;;8.52;2.28;;;22.80;64.10;;;;;;6208727;22;3296394;-73
2022/11/12 06:43:49;;;;;;;14.60;2.78;;;22.80;64.00;;;;;;6278812;22;20740;-71
2022/11/12 06:46:17;;;;;;;20.10;2.95;;;22.80;63.50;;;;;;6271665;22;20430;-71
2022/11/12 06:48:43;;;;;;;20.23;4.82;;;22.90;63.50;;;;;;6277752;22;20427;-69
2022/11/12 06:51:16;;;;;;;13.25;3.22;;;22.90;63.40;;;;;;6277535;22;20031;-71
2022/11/12 06:53:43;;;;;;;19.45;2.40;;;23.00;63.30;;;;;;6279509;22;20469;-70
2022/11/12 06:56:09;;;;;;;5.25;2.67;;;23.00;63.10;;;;;;6279251;22;19996;-76
2022/11/12 06:58:36;;;;;;;10.27;3.05;;;23.00;62.10;;;;;;6279026;22;20541;-74
2022/11/12 07:01:11;;;;;;;10.90;2.30;;;23.00;62.20;;;;;;6278637;22;20007;-75
2022/11/12 07:03:38;;;;;;;10.23;3.40;;;23.00;62.10;;;;;;6278605;22;20491;-75
2022/11/12 07:06:17;;;;;;;6.35;2.28;;;23.00;62.30;;;;;;6279668;22;20006;-74
2022/11/12 07:08:43;;;;;;;9.30;2.42;;;23.00;62.40;;;;;;6278318;22;20037;-75
2022/11/12 07:11:10;;;;;;;7.93;2.42;;;23.10;62.00;;;;;;6279885;22;19999;-75
2022/11/12 07:13:37;;;;;;;9.48;3.15;;;23.10;61.60;;;;;;6279096;22;20588;-75
2022/11/12 07:16:43;;;;;;;11.60;3.45;;;23.00;61.00;;;;;;6278304;22;20034;-74
2022/11/12 07:19:29;;;;;;;;;;;23.00;60.90;;;;;;6280705;22;20000;-75
2022/11/12 07:22:35;;;;;;;6.25;2.78;;;23.00;60.60;;;;;;6272676;22;19900;-76
2022/11/12 07:25:41;;;;;;;10.23;2.50;;;23.00;60.30;;;;;;6272571;22;20373;-75
2022/11/12 07:28:32;;;;;;;7.47;2.25;;;23.00;60.20;;;;;;6273381;22;20012;-75
2022/11/12 07:31:01;;;;;;;7.95;1.75;;;23.00;60.30;;;;;;6270374;22;20007;-75
2022/11/12 07:33:29;;;;;;;7.22;1.67;;;23.00;60.20;;;;;;6272680;22;19999;-74
2022/11/12 07:36:22;;;;;;;6.20;2.10;;;23.00;60.30;;;;;;6273531;22;20453;-74
2022/11/12 07:38:52;;;;;;;7.85;2.58;;;23.00;60.40;;;;;;6270893;22;20004;-76
2022/11/12 07:41:20;;;;;;;9.15;3.10;;;23.00;60.60;;;;;;6283496;22;20015;-73
2022/11/12 07:43:49;;;;;;;6.38;2.08;;;23.00;61.00;;;;;;6332763;22;20070;-72
2022/11/12 07:46:21;;;;;;;9.52;3.22;;;23.00;61.40;;;;;;6335172;22;20421;-74
2022/11/12 07:48:48;;;;;;;5.82;2.08;;;23.00;61.80;;;;;;6334907;22;20022;-74
2022/11/12 07:51:25;;;;;;;5.97;2.35;;;23.00;61.80;;;;;;6334212;22;19999;-74
2022/11/12 07:53:58;;;;;;;6.70;2.10;;;23.00;61.70;;;;;;6335317;22;20052;-75
2022/11/12 07:56:26;;;;;;;8.73;3.67;;;23.00;61.50;;;;;;6334167;22;20032;-74
2022/11/12 07:58:53;;;;;;;5.20;3.28;;;23.00;61.80;;;;;;6335396;22;20005;-73
2022/11/12 08:01:33;;;;;;;9.13;2.38;;;23.00;62.20;;;;;;6333943;22;20085;-73
2022/11/12 08:04:00;;;;;;;10.60;3.33;;;23.00;62.40;;;;;;6334623;22;20095;-72
2022/11/12 08:06:27;;;;;;;13.93;7.30;;;23.00;62.60;;;;;;6335133;22;20002;-74
2022/11/12 08:08:55;;;;;;;10.80;4.13;;;23.00;62.50;;;;;;6334022;22;20018;-73
2022/11/12 08:11:22;;;;;;;8.57;2.92;;;23.00;62.40;;;;;;6334939;22;20003;-74
2022/11/12 08:13:49;;;;;;;8.45;2.45;;;22.90;62.30;;;;;;6334027;22;20002;-72
2022/11/12 08:16:17;;;;;;;10.35;2.95;;;22.90;62.60;;;;;;6334946;22;20052;-73
2022/11/12 08:18:44;;;;;;;10.20;2.65;;;22.90;62.80;;;;;;6334232;22;20002;-74
2022/11/12 08:21:13;;;;;;;8.93;3.22;;;22.90;62.90;;;;;;6334234;22;19998;-74
2022/11/12 08:23:40;;;;;;;6.22;2.33;;;23.00;62.80;;;;;;6334939;22;19994;-72
2022/11/12 08:26:10;;;;;;;12.20;2.92;;;23.00;62.50;;;;;;6333958;22;20048;-74
2022/11/12 08:28:38;;;;;;;8.13;2.13;;;23.10;62.20;;;;;;6334630;22;20010;-72
2022/11/12 08:31:08;;;;;;;24.08;3.70;;;23.20;61.70;;;;;;6333754;22;20005;-72
2022/11/12 08:33:36;;;;;;;12.70;3.53;;;23.20;61.70;;;;;;6333781;22;19995;-73
2022/11/12 08:36:07;;;;;;;9.77;1.90;;;23.30;61.60;;;;;;6333768;22;20077;-72
2022/11/12 08:38:34;;;;;;;7.35;2.55;;;23.40;60.70;;;;;;6334241;22;20003;-72
2022/11/12 08:41:02;;;;;;;10.65;2.42;;;23.40;59.40;;;;;;6333871;22;20002;-72
2022/11/12 08:43:28;;;;;;;9.60;2.22;;;23.50;59.00;;;;;;6333846;22;20115;-72
2022/11/12 08:45:58;;;;;;;6.60;2.80;;;23.50;59.10;;;;;;6334946;22;20445;-72
2022/11/12 08:48:26;;;;;;;9.07;3.17;;;23.50;59.30;;;;;;6333747;22;20018;-72
2022/11/12 08:50:52;;;;;;;10.13;2.40;;;23.50;59.50;;;;;;6334829;22;19995;-72
2022/11/12 08:53:22;;;;;;;16.80;2.83;;;23.60;60.00;;;;;;6333435;22;20023;-72
2022/11/12 08:55:52;;;;;;;6.05;2.15;;;23.60;60.90;;;;;;6334365;22;20364;-71
2022/11/12 08:58:19;;;;;;;7.53;2.47;;;23.70;60.00;;;;;;6335025;22;20352;-71
2022/11/12 09:00:46;;;;;;;13.52;2.55;;;23.80;59.80;;;;;;6333015;22;20099;-72
2022/11/12 09:03:18;;;;;;;8.15;3.38;;;23.80;59.80;;;;;;6334070;22;19999;-71
2022/11/12 09:05:45;;;;;;;9.77;2.50;;;23.80;59.90;;;;;;6333694;22;20013;-71
2022/11/12 09:08:15;;;;;;;9.75;1.80;;;23.90;59.90;;;;;;6334811;22;20490;-71
2022/11/12 09:10:41;;;;;;;8.25;3.38;;;23.90;59.90;;;;;;6334359;22;20070;-73
2022/11/12 09:13:09;;;;;;;6.78;2.08;;;23.90;60.60;;;;;;6334135;22;20026;-74
2022/11/12 09:15:36;;;;;;;8.55;1.60;;;23.90;60.80;;;;;;6334680;22;19999;-73
2022/11/12 09:18:05;;;;;;;11.82;2.65;;;24.00;60.30;;;;;;6333175;22;20002;-73
2022/11/12 09:20:32;;;;;;;6.60;1.80;;;23.90;59.60;;;;;;6333790;22;19999;-73
2022/11/12 09:23:11;;;;;;;12.20;2.50;;;24.00;59.50;;;;;;6333826;22;20006;-73
2022/11/12 09:25:39;;;;;;;8.43;2.85;;;24.00;59.00;;;;;;6334088;22;19999;-73
2022/11/12 09:28:16;;;;;;;4.63;2.65;;;24.00;58.30;;;;;;6333320;22;20002;-72
2022/11/12 09:30:45;;;;;;;7.18;2.45;;;24.10;58.40;;;;;;6333258;22;20011;-72
2022/11/12 09:33:20;;;;;;;6.68;2.20;;;24.10;58.80;;;;;;6334138;22;20406;-73
2022/11/12 09:35:46;;;;;;;;;;;24.10;58.40;;;;;;6333717;22;20037;-72
2022/11/12 09:38:14;;;;;;;4.00;1.50;;;24.10;58.30;;;;;;6334556;22;19933;-73
2022/11/12 09:40:52;;;;;;;5.75;2.50;;;24.20;58.50;;;;;;6333572;22;19998;-70
2022/11/12 09:43:50;;;;;;;5.72;2.00;;;24.20;58.40;;;;;;6333901;22;20015;-73
2022/11/12 09:46:35;;;;;;;11.40;2.75;;;24.30;58.00;;;;;;6321032;22;20003;-72
2022/11/12 09:49:18;;;;;;;8.93;2.08;;;24.30;56.80;;;;;;6332704;22;20014;-73
2022/11/12 09:52:00;;;;;;;5.57;2.17;;;24.30;56.60;;;;;;6334852;22;20017;-73
2022/11/12 09:54:32;;;;;;;11.27;3.10;;;24.30;56.80;;;;;;6334760;22;20025;-72
2022/11/12 09:56:59;;;;;;;7.43;2.15;;;24.30;56.90;;;;;;6333041;22;20006;-71
2022/11/12 09:59:34;;;;;;;8.27;3.72;;;24.30;57.10;;;;;;6334227;22;20014;-72
2022/11/12 10:02:22;;;;;;;4.93;1.98;;;24.30;56.80;;;;;;6333108;22;20007;-73
2022/11/12 10:05:02;;;;;;;4.85;1.85;;;24.30;57.00;;;;;;6306734;22;20334;-72
2022/11/12 10:07:44;;;;;;;5.35;1.48;;;24.40;58.20;;;;;;6334250;22;20478;-73
2022/11/12 10:10:39;;;;;;;5.43;1.95;;;24.40;57.30;;;;;;6332612;22;20021;-71
2022/11/12 10:13:24;;;;;;;7.50;1.77;;;24.40;56.90;;;;;;6290022;22;20506;-74
2022/11/12 10:19:43;;;;;;;16.50;2.65;;;24.40;56.30;;;;;;6332600;22;20501;-72
2022/11/12 10:22:39;;;;;;;4.38;1.42;;;24.30;56.00;;;;;;6333083;22;20030;-72
2022/11/12 10:25:24;;;;;;;17.45;3.42;;;24.40;56.10;;;;;;6334252;22;20506;-71
2022/11/12 10:27:55;;;;;;;6.30;2.13;;;24.40;56.60;;;;;;6332745;22;20027;-73
2022/11/12 10:30:23;;;;;;;10.18;2.53;;;24.40;57.40;;;;;;6333594;22;20044;-72
2022/11/12 10:32:51;;;;;;;7.53;2.25;;;24.40;57.70;;;;;;6333399;22;19998;-72
2022/11/12 10:35:21;;;;;;;12.48;3.42;;;24.40;58.00;;;;;;6333699;22;19999;-72
2022/11/12 10:38:01;;;;;;;9.27;2.00;;;24.40;58.70;;;;;;6333721;22;20006;-74
2022/11/12 10:41:10;;;;;;;5.10;1.75;;;24.40;57.90;;;;;;6332539;22;20082;-69
2022/11/12 10:43:36;;;;;;;11.88;2.60;;;24.50;57.40;;;;;;6334261;22;20017;-72
2022/11/12 10:46:25;;;;;;;9.70;3.25;;;24.50;57.40;;;;;;6333469;22;20026;-71
2022/11/12 10:49:00;;;;;;;13.27;3.15;;;24.50;57.80;;;;;;6332421;22;20011;-74
2022/11/12 10:51:28;;;;;;;;;;;24.60;58.00;;;;;;6334748;22;20377;-72
2022/11/12 10:53:54;;;;;;;5.70;3.70;;;24.60;58.40;;;;;;6332386;22;19941;-73
2022/11/12 10:56:30;;;;;;;14.98;3.25;;;24.70;59.10;;;;;;6334675;22;20002;-75
2022/11/12 10:59:16;;;;;;;5.95;2.47;;;24.70;58.50;;;;;;6335138;22;20007;-74
2022/11/12 11:01:44;;;;;;;6.30;2.35;;;24.70;58.60;;;;;;6335019;22;20333;-71
2022/11/12 11:04:36;;;;;;;11.32;2.85;;;24.80;58.70;;;;;;6335651;22;20376;-71
2022/11/12 11:07:14;;;;;;;13.85;5.03;;;24.80;58.30;;;;;;6333183;22;20003;-71
2022/11/12 11:09:52;;;;;;;13.43;4.70;;;24.90;57.90;;;;;;6336075;22;20023;-71
2022/11/12 11:12:25;;;;;;;11.65;3.67;;;25.00;57.30;;;;;;6335346;22;20111;-71
2022/11/12 11:15:13;;;;;;;12.35;2.85;;;25.00;56.90;;;;;;6334982;22;20007;-71
2022/11/12 11:17:39;;;;;;;5.55;2.10;;;25.00;56.30;;;;;;6335528;22;20006;-69
2022/11/12 11:20:38;;;;;;;8.00;2.38;;;25.00;56.00;;;;;;6334061;22;20005;-71
2022/11/12 11:23:24;;;;;;;13.88;3.35;;;25.10;55.80;;;;;;6334848;22;19999;-70
2022/11/12 11:25:53;;;;;;;9.02;3.05;;;25.10;55.30;;;;;;6335363;22;19999;-72
2022/11/12 11:28:38;;;;;;;9.27;2.85;;;25.10;55.30;;;;;;6333734;22;20014;-73
2022/11/12 11:31:29;;;;;;;9.67;2.70;;;25.10;55.40;;;;;;6335837;22;20003;-72
2022/11/12 11:34:16;;;;;;;10.10;5.35;;;25.20;54.80;;;;;;6334014;22;20324;-74
2022/11/12 11:36:51;;;;;;;15.38;5.47;;;25.20;54.60;;;;;;6333121;22;20438;-73
2022/11/12 11:39:24;;;;;;;;;;;25.20;54.50;;;;;;6335837;22;20003;-73
2022/11/12 11:42:03;;;;;;;14.25;2.70;;;25.20;55.00;;;;;;6333902;22;19918;-74
2022/11/12 11:44:56;;;;;;;7.70;2.38;;;25.20;55.30;;;;;;6334646;22;20328;-72
2022/11/12 11:47:53;;;;;;;6.07;1.77;;;25.30;55.30;;;;;;6335010;22;20048;-71
2022/11/12 11:50:32;;;;;;;10.40;2.20;;;25.30;55.30;;;;;;6333845;22;20018;-72
2022/11/12 11:53:25;;;;;;;12.45;2.92;;;25.30;55.30;;;;;;6335156;22;20030;-72
2022/11/12 11:56:03;;;;;;;6.13;1.85;;;25.30;56.10;;;;;;6335188;22;20002;-71
2022/11/12 11:58:47;;;;;;;12.77;4.05;;;25.30;56.90;;;;;;6334169;22;19999;-70
2022/11/12 12:02:02;;;;;;;8.88;2.65;;;25.30;57.40;;;;;;6335352;22;20322;-71
2022/11/12 12:05:07;;;;;;;10.60;3.72;;;25.40;57.20;;;;;;6315115;22;20330;-70
2022/11/12 14:16:07;;;;;;;6.97;3.47;;;25.30;58.00;;;;;;5066823;27;20473;-67
2022/11/12 14:19:08;;;;;;;7.53;2.50;;;25.60;59.20;;;;;;5049318;28;20025;-66
2022/11/12 14:21:35;;;;;;;7.32;3.40;;;25.70;59.00;;;;;;5048181;28;20026;-69
2022/11/12 14:24:03;;;;;;;7.00;2.55;;;25.70;59.10;;;;;;5048945;28;20118;-66
2022/11/12 14:26:38;;;;;;;4.10;2.63;;;25.70;59.30;;;;;;5047530;28;20035;-66
2022/11/12 14:29:05;;;;;;;5.30;2.03;;;25.70;59.30;;;;;;5047703;28;21991;-67
2022/11/12 14:31:31;;;;;;;6.55;2.00;;;25.70;59.30;;;;;;5049266;28;20024;-67
2022/11/12 14:34:26;;;;;;;4.85;2.25;;;25.60;59.30;;;;;;5047133;28;21791;-65
2022/11/12 14:36:54;;;;;;;13.07;2.30;;;25.60;59.60;;;;;;5042212;28;20037;-66
2022/11/12 14:39:23;;;;;;;6.90;2.03;;;25.50;59.70;;;;;;5047117;28;20025;-70
2022/11/12 14:41:51;;;;;;;5.55;1.73;;;25.50;59.90;;;;;;5048497;28;20388;-69
2022/11/12 14:44:22;;;;;;;3.72;1.48;;;25.40;60.10;;;;;;5047849;28;20030;-67
2022/11/12 14:46:57;;;;;;;7.03;2.30;;;25.40;60.30;;;;;;5045285;28;20013;-67
2022/11/12 14:49:41;;;;;;;6.85;2.58;;;25.30;60.40;;;;;;5051269;28;20442;-65
2022/11/12 14:52:31;;;;;;;6.68;2.10;;;25.30;60.50;;;;;;5050588;28;20031;-70
2022/11/12 14:55:03;;;;;;;7.28;2.33;;;25.20;60.50;;;;;;5048357;28;20017;-67
2022/11/12 14:57:30;;;;;;;9.50;3.40;;;25.20;60.50;;;;;;5044469;28;20100;-70
2022/11/12 14:59:57;;;;;;;8.07;2.80;;;25.10;61.00;;;;;;5046424;28;20021;-69
2022/11/12 15:02:31;;;;;;;4.97;1.67;;;25.10;61.50;;;;;;5048447;28;20059;-67
2022/11/12 15:05:11;;;;;;;4.60;2.17;;;25.00;61.60;;;;;;5045774;28;20107;-67
2022/11/12 15:07:59;;;;;;;4.20;2.45;;;25.00;61.70;;;;;;5044730;28;20017;-66
2022/11/12 15:10:44;;;;;;;4.88;1.48;;;24.90;61.90;;;;;;5048147;28;20075;-71
2022/11/12 15:13:16;;;;;;;15.57;3.88;;;25.00;62.20;;;;;;5050520;28;20457;-68
2022/11/12 15:16:04;;;;;;;15.20;6.82;;;24.90;63.20;;;;;;5040500;28;20520;-66
2022/11/12 15:18:33;;;;;;;11.70;7.68;;;24.70;64.60;;;;;;5030883;28;20037;-67
2022/11/12 15:21:11;;;;;;;11.60;7.97;;;24.60;65.70;;;;;;5032214;28;20088;-66
2022/11/12 15:24:12;;;;;;;13.10;6.93;;;24.60;65.40;;;;;;5030583;28;20155;-67
2022/11/12 15:26:43;;;;;;;9.00;6.72;;;24.60;65.00;;;;;;5016112;28;20094;-66
2022/11/12 15:29:09;;;;;;;7.90;3.40;;;24.60;64.80;;;;;;5035750;28;20034;-65
2022/11/12 15:31:45;;;;;;;7.70;3.92;;;24.60;64.80;;;;;;5034271;28;20546;-64
2022/11/12 15:34:44;;;;;;;8.80;2.53;;;24.60;65.00;;;;;;5030862;28;20033;-68
2022/11/12 15:37:18;;;;;;;4.80;1.80;;;24.60;64.90;;;;;;5034387;28;20033;-66
2022/11/12 15:39:59;;;;;;;2.93;1.33;;;24.60;64.90;;;;;;5031331;28;20025;-66
2022/11/12 15:42:40;;;;;;;5.55;2.22;;;24.60;65.00;;;;;;5043260;28;20707;-66
2022/11/12 15:45:15;;;;;;;3.15;1.52;;;24.50;65.00;;;;;;5032513;28;20037;-66
2022/11/12 15:47:41;;;;;;;6.07;1.63;;;24.50;65.00;;;;;;5032159;28;20033;-67
2022/11/12 15:50:17;;;;;;;3.92;2.28;;;24.50;65.10;;;;;;5033143;28;20024;-68
2022/11/12 15:52:44;;;;;;;5.68;1.80;;;24.40;65.20;;;;;;5032154;28;20524;-65
2022/11/12 15:55:14;;;;;;;4.70;1.35;;;24.40;65.20;;;;;;5033791;28;20029;-65
2022/11/12 15:57:43;;;;;;;2.83;1.10;;;24.40;65.10;;;;;;5031263;28;20495;-67
2022/11/12 16:00:16;;;;;;;3.38;1.63;;;24.40;65.10;;;;;;5029431;28;20022;-64
2022/11/12 16:02:43;;;;;;;6.95;2.05;;;24.40;65.10;;;;;;5030983;28;20438;-69
2022/11/12 16:05:14;;;;;;;7.20;3.47;;;24.40;65.10;;;;;;5033302;28;20395;-68
2022/11/12 16:07:41;;;;;;;5.95;2.42;;;24.40;65.20;;;;;;5033147;28;20032;-70
2022/11/12 16:10:13;;;;;;;4.60;2.40;;;24.40;65.20;;;;;;5031230;28;20021;-64
2022/11/12 16:12:41;;;;;;;3.83;2.20;;;24.40;65.30;;;;;;5030069;28;20045;-67
2022/11/12 16:15:24;;;;;;;4.50;2.92;;;24.30;65.20;;;;;;5031479;28;20366;-68
2022/11/12 16:17:52;;;;;;;6.75;3.20;;;24.30;65.20;;;;;;5033783;28;20106;-68
2022/11/12 16:20:21;;;;;;;7.57;2.85;;;24.30;65.10;;;;;;5031033;28;20084;-64
2022/11/12 16:22:48;;;;;;;4.97;2.78;;;24.30;65.20;;;;;;5030113;28;20380;-67
2022/11/12 16:25:16;;;;;;;3.72;2.17;;;24.30;65.40;;;;;;5033453;28;20557;-70
2022/11/12 16:27:43;;;;;;;4.63;2.28;;;24.20;65.50;;;;;;5032089;28;20086;-69
2022/11/12 16:30:18;;;;;;;3.95;2.97;;;24.20;65.60;;;;;;5031378;28;20507;-65
2022/11/12 16:32:46;;;;;;;2.67;1.48;;;24.20;65.70;;;;;;5032650;28;20083;-65
2022/11/12 16:35:12;;;;;;;1.98;1.00;;;24.20;66.00;;;;;;5032637;28;20021;-66
2022/11/12 16:37:41;;;;;;;6.55;2.33;;;24.10;66.30;;;;;;5034227;28;20029;-69
2022/11/12 16:40:12;;;;;;;4.03;2.22;;;24.10;66.40;;;;;;5030751;28;20380;-65
2022/11/12 16:42:44;;;;;;;5.10;2.38;;;24.10;66.60;;;;;;5034170;28;20041;-66
2022/11/12 16:45:16;;;;;;;2.38;1.20;;;24.10;66.80;;;;;;5031650;28;20044;-67
2022/11/12 16:47:44;;;;;;;10.93;2.50;;;24.10;67.00;;;;;;5031448;28;20028;-64
2022/11/12 16:50:13;;;;;;;12.52;2.08;;;24.00;67.10;;;;;;5029701;28;20029;-66
2022/11/12 16:52:40;;;;;;;10.75;3.25;;;24.00;67.50;;;;;;5028868;28;20013;-64
2022/11/12 16:55:07;;;;;;;3.92;1.65;;;24.00;68.00;;;;;;5030547;28;20033;-64
2022/11/12 16:57:34;;;;;;;7.15;1.80;;;24.00;68.80;;;;;;5031699;28;20380;-69
2022/11/12 17:00:01;;;;;;;2.65;1.55;;;24.00;69.20;;;;;;5030262;28;20180;-68
2022/11/12 17:02:27;;;;;;;14.40;9.02;;;24.00;69.10;;;;;;5028954;28;20028;-67
2022/11/12 17:04:54;;;;;;;23.85;14.52;;;24.00;68.90;;;;;;5030448;28;20059;-65
2022/11/12 17:07:20;;;;;;;12.60;8.10;;;24.00;69.50;;;;;;5028013;28;20018;-66
2022/11/12 17:09:47;;;;;;;11.80;3.63;;;24.00;70.80;;;;;;5030334;28;20021;-67
2022/11/12 17:12:13;;;;;;;6.50;2.22;;;23.90;70.30;;;;;;5029969;28;20099;-67
2022/11/12 17:14:40;;;;;;;2.35;1.05;;;23.90;69.90;;;;;;5029097;28;20053;-67
2022/11/12 17:17:06;;;;;;;4.93;1.65;;;23.90;69.60;;;;;;5031718;28;20025;-68
2022/11/12 17:19:33;;;;;;;3.42;1.88;;;23.80;69.50;;;;;;5029317;28;20025;-65
2022/11/12 17:21:59;;;;;;;4.80;2.33;;;23.80;69.40;;;;;;5031599;28;20010;-66
2022/11/12 17:24:27;;;;;;;21.20;6.45;;;23.80;69.30;;;;;;5028453;28;20065;-66
2022/11/12 17:26:54;;;;;;;6.30;2.70;;;23.70;69.20;;;;;;5029530;28;20029;-67
2022/11/12 17:29:20;;;;;;;11.38;2.35;;;23.70;69.30;;;;;;5028958;28;20346;-65
2022/11/12 17:31:48;;;;;;;5.95;2.10;;;23.70;69.30;;;;;;5030421;28;20088;-65
2022/11/12 17:34:14;;;;;;;1.83;0.93;;;23.70;69.50;;;;;;5030286;28;20079;-66
2022/11/12 17:36:41;;;;;;;2.70;0.98;;;23.60;69.50;;;;;;5028187;28;20021;-65
2022/11/12 17:39:12;;;;;;;1.67;0.98;;;23.60;69.40;;;;;;5029817;28;20032;-65
2022/11/12 17:41:38;;;;;;;2.80;1.58;;;23.60;69.20;;;;;;5029956;28;20068;-66
2022/11/12 17:44:05;;;;;;;2.50;1.80;;;23.60;69.10;;;;;;5031998;28;20163;-64
2022/11/12 17:46:32;;;;;;;5.93;1.40;;;23.70;69.00;;;;;;5027683;28;20017;-64
2022/11/12 17:48:58;;;;;;;5.38;1.67;;;23.60;69.50;;;;;;5039610;28;20052;-64
2022/11/12 17:51:27;;;;;;;3.92;2.67;;;23.60;70.00;;;;;;5032656;28;20053;-66
2022/11/12 17:53:53;;;;;;;4.63;2.22;;;23.60;70.50;;;;;;5028971;28;20100;-65
2022/11/12 17:56:29;;;;;;;4.90;2.13;;;23.60;70.90;;;;;;5030231;28;20772;-68
2022/11/12 17:59:00;;;;;;;4.18;2.08;;;23.60;71.50;;;;;;5030184;28;20076;-68
2022/11/12 18:01:29;;;;;;;4.60;2.47;;;23.60;71.80;;;;;;5030366;28;20030;-69